Time;durP1;ratioP1;P1;durP2;ratioP2;P2;SDS_P1;SDS_P2;PMS_P1;PMS_P2;Temp;Humidity;BMP_temperature;BMP_pressure;BME280_temperature;BME280_humidity;BME280_pressure;Samples;Min_cycle;Max_cycle;Signal;HPM_P1;HPM_P2
2021/11/18 00:00:47;;;;;;;19.10;4.57;;;;;;;-142.75;100.00;78592.44;4986979;28;20029;-68
2021/11/18 00:03:14;;;;;;;14.38;3.85;;;;;;;-142.75;100.00;78582.59;4986864;28;20502;-68
2021/11/18 00:05:39;;;;;;;21.67;5.22;;;;;;;-142.75;100.00;78580.59;4985539;28;20204;-68
2021/11/18 00:08:05;;;;;;;22.23;4.50;;;;;;;-142.75;100.00;78568.78;4986931;28;20105;-68
2021/11/18 00:10:36;;;;;;;12.53;4.10;;;;;;;-142.75;100.00;78562.88;4986039;28;20018;-68
2021/11/18 00:13:04;;;;;;;21.73;4.63;;;;;;;-142.75;100.00;78562.88;4985289;28;20577;-67
2021/11/18 00:15:30;;;;;;;18.13;4.07;;;;;;;-142.75;100.00;78564.84;4986887;28;20034;-68
2021/11/18 00:18:04;;;;;;;14.68;3.40;;;;;;;-142.75;100.00;78566.81;4984876;28;20030;-67
2021/11/18 00:20:34;;;;;;;21.02;4.57;;;;;;;-142.75;100.00;78578.63;4986069;28;20033;-68
2021/11/18 00:23:00;;;;;;;21.40;3.80;;;;;;;-142.75;100.00;78582.59;4986807;28;20065;-68
2021/11/18 00:25:25;;;;;;;17.52;3.80;;;;;;;-142.75;100.00;78582.59;4986876;28;20428;-68
2021/11/18 00:27:51;;;;;;;16.85;3.78;;;;;;;-142.75;100.00;78586.53;4986902;28;20022;-68
2021/11/18 00:30:17;;;;;;;22.42;3.90;;;;;;;-142.75;100.00;78578.63;4986927;28;20563;-68
2021/11/18 00:32:43;;;;;;;20.13;3.87;;;;;;;-142.75;100.00;78586.53;4986782;28;20392;-67
2021/11/18 00:35:10;;;;;;;;;;;;;;;-142.75;100.00;78586.53;5042003;22;20091;-70
2021/11/18 00:37:36;;;;;;;22.63;4.10;;;;;;;-142.75;100.00;78594.41;5031978;28;19917;-70
2021/11/18 00:40:03;;;;;;;;;;;;;;;-142.75;100.00;78598.34;5040117;28;20029;-71
2021/11/18 00:42:28;;;;;;;15.85;3.63;;;;;;;-142.75;100.00;78590.47;5037133;28;19913;-71
2021/11/18 00:44:57;;;;;;;16.23;3.58;;;;;;;-142.75;100.00;78574.69;5015983;28;20095;-71
2021/11/18 00:47:23;;;;;;;21.37;4.07;;;;;;;-142.75;100.00;78588.50;5020686;28;20021;-71
2021/11/18 00:49:48;;;;;;;20.27;4.55;;;;;;;-142.75;100.00;78600.31;5036505;28;20028;-72
2021/11/18 00:52:13;;;;;;;17.25;3.47;;;;;;;-142.75;100.00;78598.34;5040127;28;20025;-70
2021/11/18 00:54:39;;;;;;;16.67;4.13;;;;;;;-142.75;100.00;78600.31;5038416;28;20032;-71
2021/11/18 00:57:04;;;;;;;20.80;3.63;;;;;;;-142.75;100.00;78586.53;5043150;28;20478;-70
2021/11/18 00:59:30;;;;;;;20.20;3.83;;;;;;;-142.75;100.00;78582.59;5038164;28;20029;-71
2021/11/18 01:01:55;;;;;;;28.15;5.07;;;;;;;-142.75;100.00;78580.59;5042699;28;20494;-71
2021/11/18 01:04:21;;;;;;;18.48;3.80;;;;;;;-142.75;100.00;78574.69;5041411;28;20060;-72
2021/11/18 01:06:48;;;;;;;23.60;4.35;;;;;;;-142.75;100.00;78586.53;5043641;28;20025;-71
2021/11/18 01:09:14;;;;;;;14.20;3.77;;;;;;;-142.75;100.00;78584.56;5040901;28;20037;-73
2021/11/18 01:11:40;;;;;;;21.57;4.20;;;;;;;-142.75;100.00;78582.59;5019771;28;20032;-71
2021/11/18 01:14:09;;;;;;;19.38;3.65;;;;;;;-142.75;100.00;78586.53;5020421;28;20075;-72
2021/11/18 01:16:38;;;;;;;19.63;4.60;;;;;;;-142.75;100.00;78590.47;5037732;28;20025;-71
2021/11/18 01:19:05;;;;;;;17.63;3.87;;;;;;;-142.75;100.00;78582.59;5039505;28;20021;-69
2021/11/18 01:21:31;;;;;;;21.23;4.20;;;;;;;-142.75;100.00;78584.56;5018684;28;20028;-71
2021/11/18 01:23:56;;;;;;;17.77;4.53;;;;;;;-142.75;100.00;78588.50;5037181;28;20029;-71
2021/11/18 01:26:22;;;;;;;28.25;4.78;;;;;;;-142.75;100.00;78588.50;5042052;28;20059;-71
2021/11/18 01:28:49;;;;;;;16.88;4.63;;;;;;;-142.75;100.00;78582.59;5039623;28;20029;-71
2021/11/18 01:31:15;;;;;;;21.07;4.27;;;;;;;-142.75;100.00;78580.59;5038978;28;20040;-70
2021/11/18 01:33:41;;;;;;;24.73;3.88;;;;;;;-142.75;100.00;78590.47;5035999;28;20033;-69
2021/11/18 01:36:07;;;;;;;20.50;4.73;;;;;;;-142.75;100.00;78590.47;5044011;28;20021;-69
2021/11/18 01:38:33;;;;;;;16.55;4.20;;;;;;;-142.75;100.00;78578.63;5016517;28;20513;-70
2021/11/18 01:41:05;;;;;;;20.08;4.60;;;;;;;-142.75;100.00;78576.66;5036560;28;20049;-71
2021/11/18 01:43:34;;;;;;;19.27;3.92;;;;;;;-142.75;100.00;78582.59;5016528;28;20116;-71
2021/11/18 01:45:59;;;;;;;14.98;3.65;;;;;;;-142.75;100.00;78596.38;5023780;28;20083;-71
2021/11/18 01:48:25;;;;;;;20.50;4.03;;;;;;;-142.75;100.00;78610.16;5019926;28;20036;-71
2021/11/18 01:50:53;;;;;;;20.38;4.68;;;;;;;-142.75;100.00;78614.09;5039253;28;20045;-74
2021/11/18 01:53:27;;;;;;;22.27;4.00;;;;;;;-142.75;100.00;78618.03;5021245;28;20502;-72
2021/11/18 01:55:53;;;;;;;19.85;4.80;;;;;;;-142.75;100.00;78614.09;5037003;28;20017;-71
2021/11/18 01:58:21;;;;;;;23.73;4.90;;;;;;;-142.75;100.00;78616.06;5039653;28;20462;-72
2021/11/18 02:00:53;;;;;;;16.20;4.07;;;;;;;-142.75;100.00;78621.97;5044943;28;20013;-72
2021/11/18 02:03:19;;;;;;;24.93;4.50;;;;;;;-142.75;100.00;78633.78;5019158;28;20500;-70
2021/11/18 02:06:02;;;;;;;18.42;3.88;;;;;;;-142.75;100.00;78637.72;5043017;28;20025;-70
2021/11/18 02:08:28;;;;;;;19.92;4.43;;;;;;;-142.75;100.00;78647.56;5039765;28;20040;-71
2021/11/18 02:11:00;;;;;;;19.63;4.45;;;;;;;-142.75;100.00;78647.56;5035541;28;20028;-71
2021/11/18 02:13:26;;;;;;;20.60;4.30;;;;;;;-142.75;100.00;78633.78;5038863;28;20021;-71
2021/11/18 02:15:55;;;;;;;18.98;4.47;;;;;;;-142.75;100.00;78639.69;5034018;28;20032;-70
2021/11/18 02:18:28;;;;;;;22.50;4.20;;;;;;;-142.75;100.00;78653.47;5037315;28;22101;-70
2021/11/18 02:20:57;;;;;;;15.50;4.03;;;;;;;-142.75;100.00;78661.34;5035184;28;20109;-71
2021/11/18 02:23:26;;;;;;;21.13;4.60;;;;;;;-142.75;100.00;78639.69;5017769;28;20498;-69
2021/11/18 02:25:54;;;;;;;21.50;4.90;;;;;;;-142.75;100.00;78627.88;5031864;28;20021;-71
2021/11/18 02:28:22;;;;;;;22.53;4.53;;;;;;;-142.75;100.00;78612.13;5037014;28;20092;-74
2021/11/18 02:30:49;;;;;;;24.07;4.43;;;;;;;-142.75;100.00;78623.94;5032218;28;20029;-71
2021/11/18 02:33:17;;;;;;;26.30;4.40;;;;;;;-142.75;100.00;78623.94;5022757;28;20040;-70
2021/11/18 02:35:44;;;;;;;21.03;4.93;;;;;;;-142.75;100.00;78616.06;5041272;28;20454;-71
2021/11/18 02:38:09;;;;;;;19.07;4.53;;;;;;;-142.75;100.00;78625.91;5039797;28;20037;-69
2021/11/18 02:40:36;;;;;;;19.88;4.63;;;;;;;-142.75;100.00;78614.09;5033482;28;20033;-70
2021/11/18 02:43:02;;;;;;;;;;;;;;;-142.75;100.00;78606.22;5026169;28;20021;-71
2021/11/18 02:45:30;;;;;;;18.73;4.83;;;;;;;-142.75;100.00;78606.22;5038316;28;19917;-71
2021/11/18 02:47:56;;;;;;;17.47;4.10;;;;;;;-142.75;100.00;78594.41;5033648;28;20052;-71
2021/11/18 02:50:27;;;;;;;22.88;4.55;;;;;;;-142.75;100.00;78602.28;5018316;28;20071;-69
2021/11/18 02:52:54;;;;;;;22.35;4.63;;;;;;;-142.75;100.00;78598.34;5040897;28;20029;-72
2021/11/18 02:55:24;;;;;;;19.13;4.43;;;;;;;-142.75;100.00;78586.53;5022349;28;20115;-69
2021/11/18 02:57:49;;;;;;;21.93;4.33;;;;;;;-142.75;100.00;78576.66;5037600;28;20059;-70
2021/11/18 03:00:20;;;;;;;22.17;4.90;;;;;;;-142.75;100.00;78586.53;5038086;28;20106;-71
2021/11/18 03:02:46;;;;;;;23.33;4.30;;;;;;;-142.75;100.00;78594.41;5036389;28;20120;-70
2021/11/18 03:05:12;;;;;;;20.95;4.30;;;;;;;-142.75;100.00;78582.59;5023087;28;20536;-71
2021/11/18 03:07:38;;;;;;;21.70;4.57;;;;;;;-142.75;100.00;78576.66;5037822;28;20104;-70
2021/11/18 03:10:06;;;;;;;22.83;4.50;;;;;;;-142.75;100.00;78578.63;5019485;28;20025;-71
2021/11/18 03:12:31;;;;;;;23.77;5.50;;;;;;;-142.75;100.00;78578.63;5010969;28;20061;-71
2021/11/18 03:14:57;;;;;;;17.92;4.25;;;;;;;-142.75;100.00;78570.75;5016826;28;20053;-69
2021/11/18 03:17:22;;;;;;;22.00;4.43;;;;;;;-142.75;100.00;78570.75;5038629;28;20029;-71
2021/11/18 03:19:48;;;;;;;23.95;4.80;;;;;;;-142.75;100.00;78566.81;5036375;28;20029;-70
2021/11/18 03:22:13;;;;;;;23.73;4.97;;;;;;;-142.75;100.00;78560.91;5037294;28;20033;-71
2021/11/18 03:24:38;;;;;;;20.65;4.60;;;;;;;-142.75;100.00;78558.94;5019551;28;20294;-70
2021/11/18 03:27:04;;;;;;;20.63;4.75;;;;;;;-142.75;100.00;78549.09;5022179;28;20017;-71
2021/11/18 03:29:29;;;;;;;27.30;4.78;;;;;;;-142.75;100.00;78555.00;5037070;28;20052;-71
2021/11/18 03:31:55;;;;;;;24.90;5.25;;;;;;;-142.75;100.00;78564.84;5018612;28;20111;-71
2021/11/18 03:34:25;;;;;;;21.27;5.20;;;;;;;-142.75;100.00;78553.03;5037125;28;20029;-69
2021/11/18 03:36:51;;;;;;;20.83;4.85;;;;;;;-142.75;100.00;78549.09;5038855;28;20021;-71
2021/11/18 03:39:17;;;;;;;20.10;4.13;;;;;;;-142.75;100.00;78551.06;5037409;28;20060;-71
2021/11/18 03:41:46;;;;;;;19.52;5.00;;;;;;;-142.75;100.00;78555.00;5034942;28;20026;-71
2021/11/18 03:44:13;;;;;;;26.15;5.45;;;;;;;-142.75;100.00;78539.25;5019904;28;20037;-69
2021/11/18 03:46:47;;;;;;;25.17;4.50;;;;;;;-142.75;100.00;78545.16;5039620;28;20140;-72
2021/11/18 03:49:13;;;;;;;23.17;6.03;;;;;;;-142.75;100.00;78543.19;5026541;28;20029;-71
2021/11/18 03:51:41;;;;;;;19.02;4.72;;;;;;;-142.75;100.00;78545.16;5017108;28;20108;-72
2021/11/18 03:54:09;;;;;;;23.90;4.80;;;;;;;-142.75;100.00;78543.19;5033821;28;20029;-69
2021/11/18 03:56:39;;;;;;;18.63;5.10;;;;;;;-142.75;100.00;78537.28;5029890;28;20025;-70
2021/11/18 03:59:14;;;;;;;23.27;4.53;;;;;;;-142.75;100.00;78539.25;5039146;28;20067;-71
2021/11/18 04:01:40;;;;;;;17.58;4.57;;;;;;;-142.75;100.00;78555.00;5016291;28;20025;-72
2021/11/18 04:04:08;;;;;;;21.92;4.65;;;;;;;-142.75;100.00;78553.03;5017268;28;20035;-71
2021/11/18 04:06:33;;;;;;;24.75;4.60;;;;;;;-142.75;100.00;78560.91;5031582;28;20040;-70
2021/11/18 04:08:59;;;;;;;24.85;5.40;;;;;;;-142.75;100.00;78555.00;5036015;28;20025;-71
2021/11/18 04:11:25;;;;;;;21.58;5.32;;;;;;;-142.75;100.00;78551.06;5034471;28;20372;-71
2021/11/18 04:13:51;;;;;;;20.83;4.63;;;;;;;-142.75;100.00;78545.16;5032535;28;20555;-70
2021/11/18 04:16:16;;;;;;;27.10;5.50;;;;;;;-142.75;100.00;78555.00;5039746;28;20108;-71
2021/11/18 04:18:41;;;;;;;21.63;4.82;;;;;;;-142.75;100.00;78572.72;5038567;28;20272;-71
2021/11/18 04:21:06;;;;;;;19.95;5.05;;;;;;;-142.75;100.00;78568.78;5027018;28;20414;-71
2021/11/18 04:23:32;;;;;;;21.60;4.50;;;;;;;-142.75;100.00;78564.84;5039084;28;20082;-70
2021/11/18 04:25:58;;;;;;;16.42;4.85;;;;;;;-142.75;100.00;78568.78;5038826;28;20082;-71
2021/11/18 04:28:23;;;;;;;18.13;5.57;;;;;;;-142.75;100.00;78570.75;5023831;28;20036;-71
2021/11/18 04:30:54;;;;;;;20.15;4.90;;;;;;;-142.75;100.00;78578.63;5028993;28;20524;-69
2021/11/18 04:33:21;;;;;;;23.58;5.85;;;;;;;-142.75;100.00;78570.75;5026751;28;20021;-74
2021/11/18 04:35:47;;;;;;;24.37;5.83;;;;;;;-142.75;100.00;78566.81;5021250;28;20021;-69
2021/11/18 04:38:12;;;;;;;19.25;5.03;;;;;;;-142.75;100.00;78574.69;5023792;28;20521;-71
2021/11/18 04:40:38;;;;;;;18.58;5.45;;;;;;;-142.75;100.00;78576.66;5036492;28;20037;-69
2021/11/18 04:43:04;;;;;;;;;;;;;;;-142.75;100.00;78586.53;5037790;28;20025;-70
2021/11/18 04:45:29;;;;;;;20.33;5.18;;;;;;;-142.75;100.00;78596.38;5042164;28;20275;-70
2021/11/18 04:47:55;;;;;;;21.45;6.68;;;;;;;-142.75;100.00;78584.56;5041224;28;20035;-71
2021/11/18 04:50:21;;;;;;;28.13;6.13;;;;;;;-142.75;100.00;78584.56;5042020;28;20039;-69
2021/11/18 04:52:48;;;;;;;22.90;5.80;;;;;;;-142.75;100.00;78598.34;5040087;28;20112;-72
2021/11/18 04:55:19;;;;;;;32.07;5.10;;;;;;;-142.75;100.00;78580.59;5039592;28;20052;-70
2021/11/18 04:57:45;;;;;;;25.33;5.50;;;;;;;-142.75;100.00;78582.59;5038598;28;20021;-71
2021/11/18 05:00:14;;;;;;;27.80;6.03;;;;;;;-142.75;100.00;78570.75;5017155;28;20040;-71
2021/11/18 05:02:40;;;;;;;25.38;5.22;;;;;;;-142.75;100.00;78574.69;5036955;28;20033;-71
2021/11/18 05:05:07;;;;;;;21.83;5.00;;;;;;;-142.75;100.00;78570.75;5018561;28;20029;-72
2021/11/18 05:07:32;;;;;;;28.13;5.27;;;;;;;-142.75;100.00;78576.66;5042686;28;20029;-71
2021/11/18 05:09:58;;;;;;;24.23;4.93;;;;;;;-142.75;100.00;78574.69;5038966;28;20411;-70
2021/11/18 05:12:23;;;;;;;22.85;5.15;;;;;;;-142.75;100.00;78578.63;5041006;28;20384;-69
2021/11/18 05:14:49;;;;;;;29.23;6.93;;;;;;;-142.75;100.00;78584.56;5033978;28;20159;-70
2021/11/18 05:17:14;;;;;;;25.20;5.70;;;;;;;-142.75;100.00;78594.41;5025709;28;20029;-71
2021/11/18 05:19:40;;;;;;;33.30;6.10;;;;;;;-142.75;100.00;78602.28;5036681;28;20036;-69
2021/11/18 05:22:06;;;;;;;34.70;5.72;;;;;;;-142.75;100.00;78602.28;5042161;28;20106;-71
2021/11/18 05:24:31;;;;;;;22.45;5.85;;;;;;;-142.75;100.00;78602.28;5035647;28;20177;-73
2021/11/18 05:26:56;;;;;;;30.55;5.32;;;;;;;-142.75;100.00;78596.38;5037989;28;20565;-71
2021/11/18 05:29:22;;;;;;;23.05;4.65;;;;;;;-142.75;100.00;78600.31;5037431;28;20025;-72
2021/11/18 05:31:47;;;;;;;19.63;5.10;;;;;;;-142.75;100.00;78600.31;5028573;28;20025;-70
2021/11/18 05:34:12;;;;;;;25.52;5.63;;;;;;;-142.75;100.00;78606.22;5019894;28;20119;-71
2021/11/18 05:36:38;;;;;;;25.30;5.43;;;;;;;-142.75;100.00;78606.22;5041314;28;20025;-71
2021/11/18 05:39:04;;;;;;;25.17;5.32;;;;;;;-142.75;100.00;78590.47;5023048;28;20025;-70
2021/11/18 05:41:31;;;;;;;27.30;5.33;;;;;;;-142.75;100.00;78594.41;5037457;28;20021;-70
2021/11/18 05:44:02;;;;;;;23.83;5.57;;;;;;;-142.75;100.00;78582.59;5025553;28;20367;-71
2021/11/18 05:46:29;;;;;;;17.80;4.97;;;;;;;-142.75;100.00;78576.66;5047607;28;20397;-70
2021/11/18 05:48:54;;;;;;;28.50;5.40;;;;;;;-142.75;100.00;78582.59;5038543;28;20029;-71
2021/11/18 05:51:20;;;;;;;17.92;5.32;;;;;;;-142.75;100.00;78586.53;5044889;28;20043;-70
2021/11/18 05:53:47;;;;;;;19.88;5.75;;;;;;;-142.75;100.00;78584.56;5042184;28;20056;-70
2021/11/18 05:56:16;;;;;;;22.03;5.50;;;;;;;-142.75;100.00;78588.50;5017234;28;20029;-71
2021/11/18 05:58:43;;;;;;;28.17;6.00;;;;;;;-142.75;100.00;78566.81;5019729;28;20028;-72
2021/11/18 06:01:09;;;;;;;33.90;6.07;;;;;;;-142.75;100.00;78576.66;5039506;28;20029;-70
2021/11/18 06:03:36;;;;;;;21.40;5.77;;;;;;;-142.75;100.00;78580.59;5036719;28;20025;-71
2021/11/18 06:06:02;;;;;;;33.03;5.90;;;;;;;-142.75;100.00;78582.59;5045174;28;20036;-70
2021/11/18 06:08:27;;;;;;;26.00;5.05;;;;;;;-142.75;100.00;78570.75;5038024;28;20030;-71
2021/11/18 06:10:53;;;;;;;22.85;4.35;;;;;;;-142.75;100.00;78584.56;5028372;28;20119;-71
2021/11/18 06:13:19;;;;;;;23.50;5.00;;;;;;;-142.75;100.00;78584.56;5035095;28;20184;-73
2021/11/18 06:15:45;;;;;;;23.07;5.53;;;;;;;-142.75;100.00;78582.59;5039724;28;20420;-71
2021/11/18 06:18:11;;;;;;;;;;;;;;;-142.75;100.00;78574.69;5018301;28;20037;-71
2021/11/18 06:20:36;;;;;;;26.13;5.43;;;;;;;-142.75;100.00;78568.78;5037288;28;20375;-71
2021/11/18 06:23:04;;;;;;;22.75;6.45;;;;;;;-142.75;100.00;78570.75;5039761;28;20501;-71
2021/11/18 06:25:30;;;;;;;17.92;5.55;;;;;;;-142.75;100.00;78578.63;5020364;28;20438;-70
2021/11/18 06:27:56;;;;;;;28.02;6.78;;;;;;;-142.75;100.00;78574.69;5036797;28;20025;-71
2021/11/18 06:30:34;;;;;;;20.42;5.15;;;;;;;-142.75;100.00;78560.91;5034580;28;20037;-70
2021/11/18 06:32:59;;;;;;;26.17;5.43;;;;;;;-142.75;100.00;78564.84;5044071;28;20028;-70
2021/11/18 06:35:25;;;;;;;27.47;5.70;;;;;;;-142.75;100.00;78551.06;5038107;22;20046;-67
2021/11/18 06:37:51;;;;;;;19.30;4.78;;;;;;;-142.75;100.00;78564.84;5029582;28;20279;-67
2021/11/18 06:40:18;;;;;;;29.40;5.85;;;;;;;-142.75;100.00;78574.69;5028870;28;20033;-68
2021/11/18 06:42:45;;;;;;;32.30;5.97;;;;;;;-142.75;100.00;78578.63;5028915;28;20104;-67
2021/11/18 06:45:12;;;;;;;34.70;5.87;;;;;;;-142.75;100.00;78578.63;5029347;28;20521;-68
2021/11/18 06:47:37;;;;;;;27.77;7.37;;;;;;;-142.75;100.00;78580.59;5029216;28;20064;-68
2021/11/18 06:50:04;;;;;;;22.88;6.25;;;;;;;-142.75;100.00;78578.63;5028313;28;20049;-68
2021/11/18 06:52:29;;;;;;;26.63;5.63;;;;;;;-142.75;100.00;78580.59;5029231;28;20083;-67
2021/11/18 06:54:55;;;;;;;26.95;6.50;;;;;;;-142.75;100.00;78594.41;5028827;28;20030;-68
2021/11/18 06:57:20;;;;;;;22.33;6.35;;;;;;;-142.75;100.00;78588.50;5029264;28;20029;-68
2021/11/18 06:59:46;;;;;;;29.05;6.05;;;;;;;-142.75;100.00;78594.41;5028716;28;20479;-68
2021/11/18 07:02:12;;;;;;;21.92;6.38;;;;;;;-142.75;100.00;78598.34;5029212;28;20475;-67
2021/11/18 07:04:37;;;;;;;;;;;;;;;-142.75;100.00;78592.44;5029272;28;20052;-68
2021/11/18 07:07:03;;;;;;;19.42;5.93;;;;;;;-142.75;100.00;78598.34;5029404;28;19948;-67
2021/11/18 07:09:29;;;;;;;28.05;7.13;;;;;;;-142.75;100.00;78618.03;5028947;28;20040;-68
2021/11/18 07:11:55;;;;;;;;;;;;;;;-142.75;100.00;78606.22;5028586;28;20101;-68
2021/11/18 07:14:20;;;;;;;23.57;6.07;;;;;;;-142.75;100.00;78608.19;5028960;28;20007;-67
2021/11/18 07:16:45;;;;;;;25.52;6.50;;;;;;;-142.75;100.00;78637.72;5011470;28;20022;-68
2021/11/18 07:19:10;;;;;;;31.90;7.00;;;;;;;-142.75;100.00;78641.66;5011234;28;20026;-67
2021/11/18 07:21:36;;;;;;;27.20;6.33;;;;;;;-142.75;100.00;78647.56;5027932;28;20032;-67
2021/11/18 07:24:02;;;;;;;21.98;6.47;;;;;;;-142.75;100.00;78639.69;5028645;28;20307;-68
2021/11/18 07:26:30;;;;;;;23.73;6.60;;;;;;;-142.75;100.00;78621.97;5028926;28;20033;-67
2021/11/18 07:28:55;;;;;;;25.37;5.73;;;;;;;-142.75;100.00;78616.06;5028782;28;20033;-67
2021/11/18 07:31:21;;;;;;;31.15;6.78;;;;;;;-142.75;100.00;78625.91;5027931;28;20104;-67
2021/11/18 07:33:50;;;;;;;33.42;6.50;;;;;;;-142.75;100.00;78606.22;5034741;28;20025;-67
2021/11/18 07:36:16;;;;;;;31.00;6.40;;;;;;;-142.75;100.00;78618.03;5049134;28;20118;-67
2021/11/18 07:38:42;;;;;;;22.20;6.70;;;;;;;-142.75;100.00;78618.03;5030414;28;20499;-67
2021/11/18 07:41:08;;;;;;;;;;;;;;;-142.75;100.00;78621.97;5046259;28;20139;-67
2021/11/18 07:43:38;;;;;;;19.80;5.90;;;;;;;-142.75;100.00;78618.03;5030285;28;20011;-67
2021/11/18 07:46:05;;;;;;;23.27;6.97;;;;;;;-142.75;100.00;78631.81;5030358;28;20044;-67
2021/11/18 07:48:31;;;;;;;26.50;6.70;;;;;;;-142.75;100.00;78612.13;5048411;28;20166;-67
2021/11/18 07:50:58;;;;;;;27.00;6.65;;;;;;;-142.75;100.00;78618.03;5047427;28;20124;-66
2021/11/18 07:53:24;;;;;;;32.20;7.10;;;;;;;-142.75;100.00;78616.06;5030353;28;20021;-67
2021/11/18 07:55:50;;;;;;;21.20;6.75;;;;;;;-142.75;100.00;78606.22;5051173;28;20159;-66
2021/11/18 07:58:16;;;;;;;25.48;6.82;;;;;;;-142.75;100.00;78606.22;5050921;28;20111;-67
2021/11/18 08:00:42;;;;;;;;;;;;;;;-142.75;100.00;78598.34;5050958;28;20382;-67
2021/11/18 08:03:09;;;;;;;33.47;6.68;;;;;;;-142.75;100.00;78596.38;5051289;28;19912;-66
2021/11/18 08:05:35;;;;;;;23.95;7.10;;;;;;;-142.75;100.00;78580.59;5040324;28;20033;-66
2021/11/18 08:08:00;;;;;;;24.38;6.47;;;;;;;-142.75;100.00;78604.25;5031604;28;20037;-66
2021/11/18 08:10:26;;;;;;;25.67;6.75;;;;;;;-142.75;100.00;78582.59;5032314;28;20021;-67
2021/11/18 08:12:51;;;;;;;25.58;6.68;;;;;;;-142.75;100.00;78590.47;5030931;28;20033;-67
2021/11/18 08:15:18;;;;;;;26.60;6.90;;;;;;;-142.75;100.00;78586.53;5011976;28;21762;-67
2021/11/18 08:17:44;;;;;;;31.38;6.80;;;;;;;-142.75;100.00;78580.59;5031409;28;20040;-66
2021/11/18 08:20:12;;;;;;;27.48;7.07;;;;;;;-142.75;100.00;78570.75;5030440;28;20021;-66
2021/11/18 08:22:37;;;;;;;24.73;6.73;;;;;;;-142.75;100.00;78570.75;5030842;28;20515;-67
2021/11/18 08:25:05;;;;;;;24.27;6.93;;;;;;;-142.75;100.00;78572.72;5031145;28;20026;-66
2021/11/18 08:27:32;;;;;;;24.73;6.93;;;;;;;-142.75;100.00;78566.81;5030581;28;20033;-66
2021/11/18 08:29:58;;;;;;;25.23;6.70;;;;;;;-142.75;100.00;78519.56;5030257;28;20079;-66
2021/11/18 08:32:23;;;;;;;24.20;6.60;;;;;;;-142.75;100.00;78515.63;5030903;28;20025;-66
2021/11/18 08:34:49;;;;;;;19.95;6.10;;;;;;;-142.75;100.00;78503.81;5013042;28;20041;-68
2021/11/18 08:37:15;;;;;;;25.23;7.00;;;;;;;-142.75;100.00;78484.09;5031769;28;20475;-67
2021/11/18 08:39:40;;;;;;;25.13;6.30;;;;;;;-142.75;100.00;78464.41;5030104;28;20483;-67
2021/11/18 08:42:10;;;;;;;26.45;6.00;;;;;;;-142.75;100.00;78440.78;5030596;28;20467;-67
2021/11/18 08:44:37;;;;;;;20.25;5.30;;;;;;;-142.75;100.00;78428.97;5030791;28;20021;-67
2021/11/18 08:47:05;;;;;;;25.55;6.05;;;;;;;-142.75;100.00;78413.22;5030952;28;20033;-67
2021/11/18 08:49:32;;;;;;;28.92;5.88;;;;;;;-142.75;100.00;78373.81;5030561;28;20053;-67
2021/11/18 08:52:06;;;;;;;25.77;5.97;;;;;;;-142.75;100.00;78330.50;5029664;28;21237;-67
2021/11/18 08:54:32;;;;;;;20.50;5.68;;;;;;;-142.75;100.00;78257.63;5030520;28;20025;-67
2021/11/18 08:56:58;;;;;;;28.45;6.07;;;;;;;-142.75;100.00;78190.69;5030394;28;20026;-67
2021/11/18 08:59:24;;;;;;;27.67;6.38;;;;;;;-142.75;100.00;78172.94;5030468;28;20025;-66
2021/11/18 09:01:54;;;;;;;19.85;5.13;;;;;;;-142.75;100.00;78133.56;5029771;28;20014;-67
2021/11/18 09:04:22;;;;;;;21.40;5.70;;;;;;;-142.75;100.00;78107.97;5012646;28;20037;-67
2021/11/18 09:06:49;;;;;;;22.00;4.95;;;;;;;-142.75;100.00;78080.41;5031156;28;20056;-67
2021/11/18 09:09:16;;;;;;;19.30;5.05;;;;;;;-142.75;100.00;78078.44;5030336;28;20033;-66
2021/11/18 09:11:44;;;;;;;17.83;4.80;;;;;;;-142.75;100.00;78100.09;5027655;28;20032;-67
2021/11/18 09:14:11;;;;;;;21.33;5.70;;;;;;;-142.75;100.00;78092.22;5030193;28;20029;-67
2021/11/18 09:16:39;;;;;;;21.40;5.30;;;;;;;-142.75;100.00;78074.50;5030047;28;20040;-67
2021/11/18 09:19:07;;;;;;;21.50;4.60;;;;;;;-142.75;99.67;78060.72;5030254;28;20037;-67
2021/11/18 09:21:34;;;;;;;17.98;4.70;;;;;;;-142.75;99.10;78066.63;5029095;28;20033;-67
2021/11/18 09:24:12;;;;;;;22.45;4.57;;;;;;;-142.75;98.70;78082.38;5029911;28;20035;-67
2021/11/18 09:26:44;;;;;;;17.73;5.25;;;;;;;-142.75;99.18;78060.72;5029633;28;20108;-67
2021/11/18 09:29:10;;;;;;;20.63;5.07;;;;;;;-142.75;98.08;78060.72;5026774;28;20033;-67
2021/11/18 09:31:35;;;;;;;22.67;5.28;;;;;;;-142.75;97.26;78056.78;5045577;28;20029;-67
2021/11/18 09:34:02;;;;;;;37.45;7.30;;;;;;;-142.75;97.51;78048.88;5049500;28;20031;-67
2021/11/18 09:36:29;;;;;;;19.02;4.80;;;;;;;-142.75;95.16;78027.22;5050091;28;20478;-67
2021/11/18 09:38:58;;;;;;;19.42;5.30;;;;;;;-142.75;94.77;78050.84;5049344;28;20029;-67
2021/11/18 09:41:26;;;;;;;17.90;4.32;;;;;;;-142.75;94.05;77983.91;5048540;28;20025;-67
2021/11/18 09:44:00;;;;;;;23.67;5.00;;;;;;;-142.75;91.58;77956.34;5049397;28;20071;-67
2021/11/18 09:46:31;;;;;;;20.65;5.07;;;;;;;-142.75;91.33;77964.22;5031600;28;20033;-67
2021/11/18 09:49:12;;;;;;;19.00;4.32;;;;;;;-142.75;91.06;77944.53;5049415;28;20067;-68
2021/11/18 09:52:16;;;;;;;18.45;4.70;;;;;;;-142.75;88.57;77889.38;5030613;28;20037;-67
2021/11/18 09:54:41;;;;;;;21.20;5.05;;;;;;;-142.75;87.16;77867.72;5048117;28;20037;-68
2021/11/18 09:57:15;;;;;;;21.33;4.47;;;;;;;-142.75;87.04;77952.41;5030563;28;20036;-67
2021/11/18 09:59:52;;;;;;;22.25;5.43;;;;;;;-142.75;88.75;77948.47;5028567;28;20272;-67
2021/11/18 10:02:54;;;;;;;24.20;5.00;;;;;;;-142.75;88.05;77930.75;5029821;28;20045;-67
2021/11/18 10:05:27;;;;;;;19.35;4.70;;;;;;;-142.75;87.55;77922.88;5029277;28;20076;-67
2021/11/18 10:08:00;;;;;;;18.85;4.78;;;;;;;-142.75;86.56;77861.81;5039795;28;20033;-67
2021/11/18 10:10:31;;;;;;;20.05;5.47;;;;;;;-142.75;86.05;77859.84;5036632;28;20052;-67
2021/11/18 10:13:12;;;;;;;19.98;5.10;;;;;;;-142.75;84.23;77798.81;5029150;28;20030;-67
2021/11/18 10:15:48;;;;;;;18.48;4.90;;;;;;;-142.75;83.51;77822.44;5029131;28;20048;-68
2021/11/18 10:18:13;;;;;;;25.65;5.03;;;;;;;-142.75;82.79;77783.06;5028749;28;20449;-67
2021/11/18 10:20:38;;;;;;;70.53;9.80;;;;;;;-142.75;81.42;77733.84;5028136;28;20025;-67
2021/11/18 10:23:09;;;;;;;;;;;;;;;-142.75;79.98;77720.03;5029522;28;20483;-68
2021/11/18 10:26:01;;;;;;;21.45;5.13;;;;;;;-142.75;80.54;77781.09;5035347;28;20353;-67
2021/11/18 10:28:32;;;;;;;25.83;5.35;;;;;;;-142.75;80.53;77741.72;5030523;28;20029;-68
2021/11/18 10:31:23;;;;;;;25.15;6.55;;;;;;;-142.75;79.28;77718.06;5047884;28;20060;-67
2021/11/18 10:34:09;;;;;;;20.45;5.05;;;;;;;-142.75;78.83;77694.44;5048620;28;20025;-68
2021/11/18 10:36:48;;;;;;;20.77;5.40;;;;;;;-142.75;78.15;77631.44;5032356;28;20055;-68
2021/11/18 10:39:22;;;;;;;21.45;6.18;;;;;;;-142.75;76.83;77619.63;5028917;28;20510;-68
2021/11/18 10:41:59;;;;;;;17.27;4.57;;;;;;;-142.75;76.23;77639.31;5010228;28;20124;-67
2021/11/18 10:44:43;;;;;;;19.50;4.97;;;;;;;-142.75;76.15;77613.72;5028716;28;20021;-68
2021/11/18 10:47:16;;;;;;;24.52;4.70;;;;;;;-142.75;76.25;77627.50;5028459;28;20446;-67
2021/11/18 10:50:09;;;;;;;21.23;5.00;;;;;;;-142.75;75.99;77668.84;5027663;28;20782;-68
2021/11/18 10:52:46;;;;;;;23.48;5.60;;;;;;;-142.75;75.82;77588.13;5028321;28;20091;-68
2021/11/18 10:55:21;;;;;;;25.15;5.13;;;;;;;-142.75;75.21;77562.53;5028313;28;20029;-68
2021/11/18 10:58:02;;;;;;;20.20;4.43;;;;;;;-142.75;75.53;77574.34;5027008;28;20028;-67
2021/11/18 11:00:30;;;;;;;19.45;4.53;;;;;;;-142.75;75.15;77558.59;5027454;28;20018;-66
2021/11/18 11:02:56;;;;;;;21.08;4.43;;;;;;;-142.75;73.91;77542.84;5028088;28;20044;-68
2021/11/18 11:05:27;;;;;;;23.17;4.75;;;;;;;-142.75;74.38;77540.88;5028045;28;20025;-68
2021/11/18 11:07:52;;;;;;;19.80;4.70;;;;;;;-142.75;74.69;77554.66;5028436;28;20033;-68